Date,TemperatureHighF,TemperatureAvgF,TemperatureLowF,DewpointHighF,DewpointAvgF,DewpointLowF,HumidityHigh,HumidityAvg,HumidityLow,PressureMaxIn,PressureMinIn,WindSpeedMaxMPH,WindSpeedAvgMPH,GustSpeedMaxMPH,PrecipitationSumIn
2013-3-1,47,40,34,41,36,33,99,86,62,29.74,29.57,12,4,24,0.00
2013-3-2,39,36,32,35,34,31,99,90,83,29.75,29.68,9,2,24,0.00
2013-3-3,38,34,30,34,32,30,99,93,81,29.70,29.63,10,3,20,0.00
2013-3-4,40,33,28,32,29,27,99,88,72,29.80,29.67,13,7,39,0.00
2013-3-5,48,36,29,38,33,28,99,89,66,30.10,29.80,10,3,39,0.00
2013-3-6,41,37,32,40,36,32,99,99,95,30.07,29.94,15,9,44,0.00
2013-3-7,38,34,32,37,34,32,99,98,94,29.98,29.90,17,13,48,0.00
2013-3-8,40,34,30,36,33,30,99,96,72,30.12,29.93,14,9,48,0.23
2013-3-9,53,42,32,35,29,24,99,64,34,30.35,30.12,11,6,36,0.44
2013-3-10,46,36,30,41,35,30,99,96,80,30.43,30.35,7,1,26,0.03
2013-3-11,47,41,35,47,41,35,99,99,99,30.37,30.21,7,2,15,0.00
2013-3-12,53,50,44,53,50,44,99,99,99,30.22,29.79,15,8,32,0.67
2013-3-13,51,44,37,49,37,29,99,78,45,29.85,29.77,10,4,32,0.53
2013-3-14,38,32,28,34,27,19,99,81,58,29.91,29.80,14,5,32,0.00
2013-3-15,41,33,26,36,24,16,94,72,52,29.94,29.74,12,5,32,0.00
2013-3-16,41,35,30,35,28,19,99,78,43,29.92,29.75,8,1,32,0.00
2013-3-17,38,32,27,33,22,15,99,69,40,30.33,29.92,12,3,29,0.00
2013-3-18,35,29,21,31,20,11,99,70,39,30.47,30.20,8,2,26,0.00
2013-3-19,40,35,30,40,35,30,99,99,99,30.20,29.62,15,7,30,0.62
2013-3-20,43,35,29,34,30,26,99,82,55,29.86,29.75,12,3,30,0.01
2013-3-21,40,34,30,34,31,28,99,89,76,29.86,29.64,7,1,30,0.00
2013-3-22,40,34,26,31,25,21,99,72,54,29.83,29.68,9,3,26,0.00
2013-3-23,45,37,29,31,28,25,96,73,46,29.88,29.74,15,5,32,0.00
2013-3-24,48,38,30,37,30,26,99,77,50,29.91,29.75,8,2,32,0.00
2013-3-25,44,37,31,39,35,31,99,91,72,29.80,29.49,15,4,35,0.07
2013-3-26,46,38,33,39,34,28,99,85,61,29.85,29.54,10,3,35,0.07
2013-3-27,53,42,32,36,31,27,85,65,43,29.91,29.82,10,3,35,0.00
2013-3-28,50,42,36,42,38,34,99,89,63,30.09,29.91,7,2,21,0.00
2013-3-29,54,46,38,42,38,34,98,75,50,30.11,30.03,8,2,21,0.00
2013-3-30,54,47,39,38,35,26,91,65,35,30.16,30.07,7,2,20,0.00
2013-3-31,54,44,34,46,39,-100,99,87,59,30.17,29.74,8,2,32,0.18